El Dorado Springs, Missouri
Current Conditions -  °F | °C
As of 10:35 AM on Monday 26 Jan 2015 (Local Time) from KGLY Reporting Station
Clear Clear  
Wind Chill: 32°   Ceiling: Unl
Heat Index: 39°   Visibility: 9mi
Dew Point: 34°   Wind: 13mph
Humidity: 81%   Direction: 200°SSW
Pressure: 30.01"   Gusts: NA
Location:  37.88°N, 94.02°W
Report Text: KGLY 261635Z AUTO 20011KT 9SM CLR 04/01 A3001 RMK AO2
Loading
Personal Weather Stations






























Interactive Weather Map New forecast layout! Learn more

10-Day Weather Forecast

Advertisements
Track Severe Weather on mobile